Time;durP1;ratioP1;P1;durP2;ratioP2;P2;SDS_P1;SDS_P2;PMS_P1;PMS_P2;Temp;Humidity;BMP_temperature;BMP_pressure;BME280_temperature;BME280_humidity;BME280_pressure;Samples;Min_cycle;Max_cycle;Signal;HPM_P1;HPM_P2
2022/01/09 00:01:29;;;;;;;18.20;9.68;;;;;;;;;;5028167;28;20034;-51
2022/01/09 00:03:55;;;;;;;13.05;7.07;;;;;;;;;;5026756;28;20025;-51
2022/01/09 00:06:21;;;;;;;13.90;5.78;;;;;;;;;;5026027;28;20029;-51
2022/01/09 00:08:48;;;;;;;10.48;4.13;;;;;;;;;;5022951;28;20037;-49
2022/01/09 00:11:15;;;;;;;8.10;3.60;;;;;;;;;;5028943;28;20030;-52
2022/01/09 00:13:41;;;;;;;16.73;3.80;;;;;;;;;;5027739;28;20044;-51
2022/01/09 00:16:08;;;;;;;13.95;3.97;;;;;;;;;;5023423;28;20041;-48
2022/01/09 00:18:34;;;;;;;15.57;3.42;;;;;;;;;;5022334;28;20060;-54
2022/01/09 00:21:05;;;;;;;8.82;3.47;;;;;;;;;;5029438;28;20037;-54
2022/01/09 00:23:34;;;;;;;19.10;5.18;;;;;;;;;;5023738;28;20037;-53
2022/01/09 00:26:00;;;;;;;14.80;4.43;;;;;;;;;;5022882;28;20087;-50
2022/01/09 00:28:26;;;;;;;20.25;4.43;;;;;;;;;;5025557;28;20076;-50
2022/01/09 00:30:52;;;;;;;19.77;4.30;;;;;;;;;;5024683;28;20686;-50
2022/01/09 00:33:22;;;;;;;16.30;4.88;;;;;;;;;;5018930;28;20038;-52
2022/01/09 00:35:49;;;;;;;15.45;5.00;;;;;;;;;;5018739;28;20026;-52
2022/01/09 00:38:16;;;;;;;13.32;3.08;;;;;;;;;;5025184;28;20030;-53
2022/01/09 00:40:41;;;;;;;15.93;3.88;;;;;;;;;;5027319;28;20112;-48
2022/01/09 00:43:09;;;;;;;15.88;2.83;;;;;;;;;;5020761;28;20108;-52
2022/01/09 00:45:39;;;;;;;12.05;2.85;;;;;;;;;;5025067;28;20029;-48
2022/01/09 00:48:06;;;;;;;9.60;2.85;;;;;;;;;;5020408;28;20137;-48
2022/01/09 00:50:33;;;;;;;11.85;3.35;;;;;;;;;;5022999;28;20053;-48
2022/01/09 00:52:59;;;;;;;10.95;2.33;;;;;;;;;;5023144;28;20419;-49
2022/01/09 00:55:25;;;;;;;10.45;2.80;;;;;;;;;;5021244;28;20036;-49
2022/01/09 00:57:51;;;;;;;10.13;2.53;;;;;;;;;;5030703;28;20029;-50
2022/01/09 01:00:16;;;;;;;7.13;2.67;;;;;;;;;;5024932;28;20030;-48
2022/01/09 01:02:43;;;;;;;8.35;2.67;;;;;;;;;;5021785;28;20034;-56
2022/01/09 01:05:09;;;;;;;10.85;2.60;;;;;;;;;;5025233;28;20506;-48
2022/01/09 01:07:35;;;;;;;12.48;4.07;;;;;;;;;;5026688;28;20120;-51
2022/01/09 01:10:02;;;;;;;11.43;3.28;;;;;;;;;;5019486;28;20493;-48
2022/01/09 01:12:30;;;;;;;11.05;2.75;;;;;;;;;;5022082;28;20048;-49
2022/01/09 01:14:55;;;;;;;9.55;3.10;;;;;;;;;;5023350;28;20040;-48
2022/01/09 01:17:22;;;;;;;11.48;3.30;;;;;;;;;;5026608;28;20490;-51
2022/01/09 01:19:49;;;;;;;19.85;3.78;;;;;;;;;;5022782;28;20115;-52
2022/01/09 01:22:16;;;;;;;23.40;4.03;;;;;;;;;;5029086;28;20056;-53
2022/01/09 01:24:42;;;;;;;9.07;3.13;;;;;;;;;;5023131;28;20039;-49
2022/01/09 01:27:08;;;;;;;10.93;3.20;;;;;;;;;;5027521;28;20041;-51
2022/01/09 01:29:36;;;;;;;9.98;3.40;;;;;;;;;;5020822;28;20075;-48
2022/01/09 01:32:02;;;;;;;14.60;4.03;;;;;;;;;;5023317;28;20438;-48
2022/01/09 01:34:28;;;;;;;11.82;4.18;;;;;;;;;;5016399;28;20022;-49
2022/01/09 01:36:53;;;;;;;13.32;3.88;;;;;;;;;;5024550;28;20037;-48
2022/01/09 01:39:19;;;;;;;16.23;3.67;;;;;;;;;;5025258;28;20140;-55
2022/01/09 01:41:45;;;;;;;14.00;3.88;;;;;;;;;;5023550;28;20143;-48
2022/01/09 01:44:12;;;;;;;12.00;3.53;;;;;;;;;;5022593;28;20045;-50
2022/01/09 01:46:38;;;;;;;12.55;3.67;;;;;;;;;;5021478;28;20037;-50
2022/01/09 01:49:05;;;;;;;15.05;3.90;;;;;;;;;;5022539;28;20108;-49
2022/01/09 01:51:33;;;;;;;15.15;4.10;;;;;;;;;;5022128;28;20116;-53
2022/01/09 01:54:01;;;;;;;17.70;3.35;;;;;;;;;;5021281;28;20045;-50
2022/01/09 01:56:27;;;;;;;23.52;3.42;;;;;;;;;;5020909;28;20051;-48
2022/01/09 01:58:53;;;;;;;15.60;3.72;;;;;;;;;;5019336;28;20030;-47
2022/01/09 02:01:19;;;;;;;11.27;3.45;;;;;;;;;;5021213;28;20113;-48
2022/01/09 02:03:44;;;;;;;11.88;3.65;;;;;;;;;;5022363;28;20455;-48
2022/01/09 02:06:16;;;;;;;9.90;2.65;;;;;;;;;;5026358;28;20112;-54
2022/01/09 02:08:43;;;;;;;14.27;3.55;;;;;;;;;;5022115;28;20156;-49
2022/01/09 02:11:10;;;;;;;15.93;3.60;;;;;;;;;;5024577;28;20057;-54
2022/01/09 02:13:40;;;;;;;12.82;2.78;;;;;;;;;;5021766;28;20045;-51
2022/01/09 02:16:07;;;;;;;10.32;2.30;;;;;;;;;;5023906;28;20030;-49
2022/01/09 02:18:33;;;;;;;7.80;2.28;;;;;;;;;;5019878;28;20367;-55
2022/01/09 02:20:59;;;;;;;10.77;2.58;;;;;;;;;;5019260;28;20026;-51
2022/01/09 02:23:25;;;;;;;7.20;2.22;;;;;;;;;;5026798;28;20482;-48
2022/01/09 02:25:51;;;;;;;9.00;2.33;;;;;;;;;;5018970;28;20044;-51
2022/01/09 02:28:18;;;;;;;6.03;1.70;;;;;;;;;;5024115;28;20029;-51
2022/01/09 02:30:44;;;;;;;7.25;1.90;;;;;;;;;;5020070;28;20034;-51
2022/01/09 02:33:14;;;;;;;9.75;1.73;;;;;;;;;;5017826;28;20047;-50
2022/01/09 02:35:40;;;;;;;10.05;1.85;;;;;;;;;;5019504;28;20022;-50
2022/01/09 02:38:06;;;;;;;9.73;1.70;;;;;;;;;;5020400;28;20028;-55
2022/01/09 02:40:32;;;;;;;5.95;1.45;;;;;;;;;;5021416;28;20029;-50
2022/01/09 02:42:58;;;;;;;5.93;1.30;;;;;;;;;;5025048;28;20398;-49
2022/01/09 02:45:26;;;;;;;5.88;1.75;;;;;;;;;;5024483;28;20026;-55
2022/01/09 02:47:54;;;;;;;6.10;1.63;;;;;;;;;;5021325;28;20030;-52
2022/01/09 02:53:01;;;;;;;9.88;1.73;;;;;;;;;;5018680;28;20394;-51
2022/01/09 02:55:29;;;;;;;7.18;1.55;;;;;;;;;;5021491;28;20025;-49
2022/01/09 02:57:58;;;;;;;5.95;1.63;;;;;;;;;;5023788;28;20044;-54
2022/01/09 03:00:26;;;;;;;5.03;1.48;;;;;;;;;;5020849;28;20113;-49
2022/01/09 03:02:53;;;;;;;6.32;1.45;;;;;;;;;;5018888;28;20037;-50
2022/01/09 03:05:19;;;;;;;2.85;1.05;;;;;;;;;;5021753;28;20029;-54
2022/01/09 03:07:45;;;;;;;3.63;1.10;;;;;;;;;;5026517;28;20103;-54
2022/01/09 03:10:13;;;;;;;9.65;1.85;;;;;;;;;;5025162;28;20032;-52
2022/01/09 03:12:39;;;;;;;6.72;1.30;;;;;;;;;;5020767;28;20543;-51
2022/01/09 03:15:07;;;;;;;5.03;1.27;;;;;;;;;;5018213;28;20117;-48
2022/01/09 03:17:34;;;;;;;8.93;1.67;;;;;;;;;;5026432;28;20040;-52
2022/01/09 03:20:00;;;;;;;5.40;1.30;;;;;;;;;;5022074;28;20053;-51
2022/01/09 03:22:25;;;;;;;7.95;1.10;;;;;;;;;;5017392;28;20422;-50
2022/01/09 03:24:51;;;;;;;3.53;0.98;;;;;;;;;;5025844;28;20101;-53
2022/01/09 03:27:17;;;;;;;6.75;1.67;;;;;;;;;;5023671;28;20901;-51
2022/01/09 03:29:44;;;;;;;4.00;1.45;;;;;;;;;;5019458;28;20033;-48
2022/01/09 03:32:10;;;;;;;4.78;1.50;;;;;;;;;;5021175;28;20033;-50
2022/01/09 03:34:36;;;;;;;3.03;1.13;;;;;;;;;;5020074;28;20781;-52
2022/01/09 03:37:04;;;;;;;7.57;1.40;;;;;;;;;;5022762;28;20144;-53
2022/01/09 03:39:29;;;;;;;4.50;1.92;;;;;;;;;;5023581;28;20052;-48
2022/01/09 03:41:58;;;;;;;6.43;1.30;;;;;;;;;;5027310;28;20038;-49
2022/01/09 03:44:25;;;;;;;5.75;1.80;;;;;;;;;;5026516;28;20101;-55
2022/01/09 03:46:50;;;;;;;4.57;1.55;;;;;;;;;;5023053;28;20120;-53
2022/01/09 03:49:16;;;;;;;6.68;1.33;;;;;;;;;;5022792;28;20104;-50
2022/01/09 03:51:44;;;;;;;7.88;1.83;;;;;;;;;;5023956;28;20032;-49
2022/01/09 03:54:10;;;;;;;7.30;1.30;;;;;;;;;;5020586;28;20033;-49
2022/01/09 03:56:36;;;;;;;3.92;1.58;;;;;;;;;;5024471;28;20036;-49
2022/01/09 03:59:02;;;;;;;3.30;1.20;;;;;;;;;;5021456;28;20030;-51
2022/01/09 04:01:28;;;;;;;2.90;1.20;;;;;;;;;;5021541;28;20026;-48
2022/01/09 04:03:54;;;;;;;6.90;1.30;;;;;;;;;;5025599;28;20033;-53
2022/01/09 04:06:19;;;;;;;8.68;1.70;;;;;;;;;;5019823;28;20415;-49
2022/01/09 04:08:47;;;;;;;3.58;1.30;;;;;;;;;;5024074;28;20044;-53
2022/01/09 04:11:18;;;;;;;4.32;1.13;;;;;;;;;;5023839;28;20026;-51
2022/01/09 04:13:43;;;;;;;5.43;1.55;;;;;;;;;;5022596;28;20037;-51
2022/01/09 04:16:09;;;;;;;4.68;1.60;;;;;;;;;;5023982;28;20033;-51
2022/01/09 04:18:35;;;;;;;5.28;1.48;;;;;;;;;;5028130;28;20506;-48
2022/01/09 04:21:01;;;;;;;2.85;1.33;;;;;;;;;;5029180;28;20030;-54
2022/01/09 04:23:26;;;;;;;3.42;1.45;;;;;;;;;;5024419;28;20030;-55
2022/01/09 04:25:52;;;;;;;6.28;1.30;;;;;;;;;;5023501;28;20034;-52
2022/01/09 04:28:19;;;;;;;4.32;1.70;;;;;;;;;;5029269;28;20041;-50
2022/01/09 04:30:45;;;;;;;4.55;1.02;;;;;;;;;;5022290;28;20367;-54
2022/01/09 04:33:11;;;;;;;4.82;1.50;;;;;;;;;;5028061;28;20037;-54
2022/01/09 04:35:39;;;;;;;6.15;1.67;;;;;;;;;;5027768;28;20049;-51
2022/01/09 04:38:05;;;;;;;5.32;1.13;;;;;;;;;;5027678;28;20064;-55
2022/01/09 04:40:31;;;;;;;3.33;1.48;;;;;;;;;;5023732;28;20030;-52
2022/01/09 04:43:00;;;;;;;3.50;1.60;;;;;;;;;;5026837;28;20045;-50
2022/01/09 04:45:28;;;;;;;2.65;1.77;;;;;;;;;;5025262;28;20038;-51
2022/01/09 04:48:04;;;;;;;5.45;1.45;;;;;;;;;;5024062;28;20033;-50
2022/01/09 04:50:32;;;;;;;3.05;1.33;;;;;;;;;;5025154;28;20112;-54
2022/01/09 04:53:07;;;;;;;4.65;1.30;;;;;;;;;;5024678;28;20037;-52
2022/01/09 04:55:42;;;;;;;3.53;1.40;;;;;;;;;;5024693;28;20095;-55
2022/01/09 04:58:09;;;;;;;3.10;1.38;;;;;;;;;;5023986;28;20033;-56
2022/01/09 05:00:36;;;;;;;4.20;1.20;;;;;;;;;;5025588;28;20040;-50
2022/01/09 05:03:02;;;;;;;6.15;1.55;;;;;;;;;;5022755;28;20044;-56
2022/01/09 05:05:28;;;;;;;3.75;1.70;;;;;;;;;;5023612;28;22209;-52
2022/01/09 05:07:54;;;;;;;4.28;1.38;;;;;;;;;;5022561;28;20033;-50
2022/01/09 05:10:20;;;;;;;4.43;1.40;;;;;;;;;;5022257;28;20044;-53
2022/01/09 05:12:46;;;;;;;8.82;1.40;;;;;;;;;;5022886;28;20026;-54
2022/01/09 05:15:13;;;;;;;6.63;2.45;;;;;;;;;;5022995;28;20029;-57
2022/01/09 05:17:39;;;;;;;5.72;1.45;;;;;;;;;;5019093;28;20613;-53
2022/01/09 05:20:06;;;;;;;4.95;1.45;;;;;;;;;;5024363;28;20038;-56
2022/01/09 05:22:32;;;;;;;3.25;1.10;;;;;;;;;;5024660;28;20044;-51
2022/01/09 05:24:58;;;;;;;2.38;1.35;;;;;;;;;;5025105;28;20410;-54
2022/01/09 05:27:25;;;;;;;4.57;1.10;;;;;;;;;;5028850;28;20462;-55
2022/01/09 05:29:51;;;;;;;5.63;1.67;;;;;;;;;;5020160;28;20037;-48
2022/01/09 05:32:17;;;;;;;3.50;1.45;;;;;;;;;;5025232;28;20032;-53
2022/01/09 05:34:43;;;;;;;5.40;1.33;;;;;;;;;;5022203;28;20033;-53
2022/01/09 05:37:09;;;;;;;5.18;1.20;;;;;;;;;;5022736;28;20030;-52
2022/01/09 05:39:35;;;;;;;3.72;1.52;;;;;;;;;;5020946;28;20084;-51
2022/01/09 05:42:04;;;;;;;5.43;1.38;;;;;;;;;;5026518;28;20033;-54
2022/01/09 05:44:31;;;;;;;4.60;1.20;;;;;;;;;;5020240;28;20032;-50
2022/01/09 05:46:59;;;;;;;8.63;1.38;;;;;;;;;;5025502;28;20076;-50
2022/01/09 05:49:24;;;;;;;3.03;1.15;;;;;;;;;;5022058;28;20026;-54
2022/01/09 05:51:50;;;;;;;5.65;1.33;;;;;;;;;;5024148;28;20490;-57
2022/01/09 05:54:16;;;;;;;5.78;1.20;;;;;;;;;;5021873;28;20041;-54
2022/01/09 05:56:42;;;;;;;4.45;1.42;;;;;;;;;;5022820;28;20026;-52
2022/01/09 05:59:08;;;;;;;5.22;1.55;;;;;;;;;;5019229;28;20446;-52
2022/01/09 06:01:34;;;;;;;4.45;1.50;;;;;;;;;;5025725;28;20116;-51
2022/01/09 06:04:00;;;;;;;4.88;1.65;;;;;;;;;;5018638;28;20037;-56
2022/01/09 06:06:26;;;;;;;3.70;1.33;;;;;;;;;;5020302;28;20037;-51
2022/01/09 06:08:51;;;;;;;5.53;1.42;;;;;;;;;;5026455;28;20095;-55
2022/01/09 06:11:17;;;;;;;4.43;1.15;;;;;;;;;;5023481;28;20102;-53
2022/01/09 06:13:43;;;;;;;5.72;1.63;;;;;;;;;;5022190;28;20037;-54
2022/01/09 06:16:09;;;;;;;3.95;1.20;;;;;;;;;;5025942;28;20069;-56
2022/01/09 06:18:35;;;;;;;5.95;1.42;;;;;;;;;;5019957;28;20053;-52
2022/01/09 06:21:01;;;;;;;12.30;4.57;;;;;;;;;;5024986;28;20513;-53
2022/01/09 06:23:27;;;;;;;8.82;4.28;;;;;;;;;;5027892;28;20395;-55
2022/01/09 06:25:53;;;;;;;9.73;3.90;;;;;;;;;;5025192;28;20036;-53
2022/01/09 06:28:19;;;;;;;8.05;3.30;;;;;;;;;;5014178;28;20464;-55
2022/01/09 06:30:45;;;;;;;11.35;4.03;;;;;;;;;;5022532;28;20029;-56
2022/01/09 06:33:11;;;;;;;6.32;3.08;;;;;;;;;;5024342;28;20025;-55
2022/01/09 06:35:38;;;;;;;4.97;3.00;;;;;;;;;;5024324;28;20021;-54
2022/01/09 06:38:05;;;;;;;4.78;1.85;;;;;;;;;;5022223;28;20033;-52
2022/01/09 06:40:31;;;;;;;3.28;1.50;;;;;;;;;;5017830;28;20486;-51
2022/01/09 06:42:58;;;;;;;4.85;1.27;;;;;;;;;;5020144;28;20034;-56
2022/01/09 06:45:24;;;;;;;5.25;1.55;;;;;;;;;;5015567;28;20491;-56
2022/01/09 06:47:54;;;;;;;3.10;1.27;;;;;;;;;;5022198;28;20022;-53
2022/01/09 06:50:21;;;;;;;2.30;1.40;;;;;;;;;;5024225;28;20061;-55
2022/01/09 06:52:47;;;;;;;2.42;1.38;;;;;;;;;;5022711;28;20112;-56
2022/01/09 06:55:14;;;;;;;4.72;1.80;;;;;;;;;;5013842;28;20379;-54
2022/01/09 06:57:40;;;;;;;4.97;1.35;;;;;;;;;;5025431;28;20029;-52
2022/01/09 07:00:08;;;;;;;2.70;1.08;;;;;;;;;;5024064;28;20115;-56
2022/01/09 07:02:33;;;;;;;5.82;1.55;;;;;;;;;;5015135;28;20386;-56
2022/01/09 07:04:59;;;;;;;4.15;1.80;;;;;;;;;;5019606;28;20036;-56
2022/01/09 07:07:24;;;;;;;2.08;1.30;;;;;;;;;;5023596;28;20120;-54
2022/01/09 07:09:51;;;;;;;4.68;1.80;;;;;;;;;;5021231;28;20037;-56
2022/01/09 07:12:19;;;;;;;4.40;1.40;;;;;;;;;;5018066;28;20045;-52
2022/01/09 07:14:45;;;;;;;4.78;1.40;;;;;;;;;;5025425;28;20044;-57
2022/01/09 07:17:11;;;;;;;3.00;1.30;;;;;;;;;;5026287;28;20025;-55
2022/01/09 07:19:37;;;;;;;4.03;1.40;;;;;;;;;;5022552;28;20052;-53
2022/01/09 07:22:06;;;;;;;2.15;1.10;;;;;;;;;;5028212;28;20061;-56
2022/01/09 07:24:33;;;;;;;8.27;1.42;;;;;;;;;;5018360;28;20117;-55
2022/01/09 07:26:59;;;;;;;3.20;1.55;;;;;;;;;;5022574;28;20029;-52
2022/01/09 07:29:26;;;;;;;3.92;1.33;;;;;;;;;;5024019;28;20036;-55
2022/01/09 07:31:52;;;;;;;5.63;1.30;;;;;;;;;;5024909;28;20410;-55
2022/01/09 07:34:18;;;;;;;2.22;0.88;;;;;;;;;;5024447;28;20034;-57
2022/01/09 07:36:44;;;;;;;2.67;1.17;;;;;;;;;;5024020;28;20498;-55
2022/01/09 07:39:10;;;;;;;4.50;1.10;;;;;;;;;;5020023;28;20113;-55
2022/01/09 07:41:36;;;;;;;4.25;1.48;;;;;;;;;;5021061;28;20029;-51
2022/01/09 07:44:02;;;;;;;8.18;2.20;;;;;;;;;;5025337;28;20123;-48
2022/01/09 07:46:28;;;;;;;6.32;3.38;;;;;;;;;;5027671;28;20394;-48
2022/01/09 07:48:54;;;;;;;11.90;4.78;;;;;;;;;;5020402;28;20453;-53
2022/01/09 07:51:20;;;;;;;10.88;5.50;;;;;;;;;;5025307;28;20029;-51
2022/01/09 07:53:46;;;;;;;11.23;5.05;;;;;;;;;;5024680;28;20153;-51
2022/01/09 07:56:11;;;;;;;14.77;6.90;;;;;;;;;;5025581;28;20031;-51
2022/01/09 07:58:37;;;;;;;12.93;5.63;;;;;;;;;;5029487;28;20041;-50
2022/01/09 08:01:04;;;;;;;11.98;5.47;;;;;;;;;;5027413;28;20095;-51
2022/01/09 08:03:30;;;;;;;7.30;2.05;;;;;;;;;;5023140;28;20021;-52
2022/01/09 08:05:56;;;;;;;17.05;7.32;;;;;;;;;;5028476;28;20063;-50
2022/01/09 08:08:22;;;;;;;11.93;3.00;;;;;;;;;;5020344;28;20486;-53
2022/01/09 08:10:48;;;;;;;5.93;1.70;;;;;;;;;;5023600;28;20029;-51
2022/01/09 08:13:13;;;;;;;5.57;1.92;;;;;;;;;;5027671;28;20037;-55
2022/01/09 08:15:39;;;;;;;7.13;2.35;;;;;;;;;;5027522;28;20028;-55
2022/01/09 08:18:05;;;;;;;5.78;1.88;;;;;;;;;;5021576;28;20044;-48
2022/01/09 08:20:31;;;;;;;5.57;1.65;;;;;;;;;;5021045;28;20104;-49
2022/01/09 08:22:58;;;;;;;4.43;1.92;;;;;;;;;;5060360;28;20037;-55
2022/01/09 08:25:24;;;;;;;16.23;2.40;;;;;;;;;;5027604;28;20033;-50
2022/01/09 08:27:49;;;;;;;9.10;3.40;;;;;;;;;;5028523;28;20037;-49
2022/01/09 08:30:18;;;;;;;10.57;3.13;;;;;;;;;;5020758;28;20095;-50
2022/01/09 08:32:45;;;;;;;7.95;3.05;;;;;;;;;;5023455;28;20036;-51
2022/01/09 08:35:11;;;;;;;9.85;2.78;;;;;;;;;;5060157;28;20116;-50
2022/01/09 08:37:41;;;;;;;4.90;2.00;;;;;;;;;;5027146;28;20071;-51
2022/01/09 08:40:10;;;;;;;6.97;2.58;;;;;;;;;;5025287;28;20037;-48
2022/01/09 08:42:36;;;;;;;7.55;3.58;;;;;;;;;;5028063;28;20030;-49
2022/01/09 08:45:03;;;;;;;5.35;2.95;;;;;;;;;;5024612;28;20033;-50
2022/01/09 08:47:29;;;;;;;8.90;2.90;;;;;;;;;;5023523;28;20029;-50
2022/01/09 08:49:55;;;;;;;6.22;1.80;;;;;;;;;;5027472;28;20459;-54
2022/01/09 08:52:20;;;;;;;11.02;3.90;;;;;;;;;;5027599;28;20025;-52
2022/01/09 08:54:46;;;;;;;4.43;2.20;;;;;;;;;;5029038;28;20391;-52
2022/01/09 08:57:12;;;;;;;5.97;2.65;;;;;;;;;;5023703;28;20044;-48
2022/01/09 08:59:38;;;;;;;9.75;3.38;;;;;;;;;;5021874;28;20047;-53
2022/01/09 09:02:04;;;;;;;15.45;4.82;;;;;;;;;;5019047;28;20033;-52
2022/01/09 09:04:29;;;;;;;23.15;6.97;;;;;;;;;;5026793;28;20034;-49
2022/01/09 09:06:55;;;;;;;18.95;6.20;;;;;;;;;;5021111;28;20072;-49
2022/01/09 09:09:21;;;;;;;10.07;2.85;;;;;;;;;;5023910;28;20037;-56
2022/01/09 09:11:48;;;;;;;5.80;2.33;;;;;;;;;;5024934;28;20037;-50
2022/01/09 09:14:14;;;;;;;4.07;2.05;;;;;;;;;;5023905;28;20052;-50
2022/01/09 09:16:40;;;;;;;5.03;2.47;;;;;;;;;;5027694;28;20033;-49
2022/01/09 09:19:06;;;;;;;6.55;2.10;;;;;;;;;;5022029;28;20052;-52
2022/01/09 09:21:31;;;;;;;8.90;2.55;;;;;;;;;;5018997;28;20050;-50
2022/01/09 09:23:57;;;;;;;5.30;2.33;;;;;;;;;;5019606;28;20472;-49
2022/01/09 09:26:23;;;;;;;5.25;2.28;;;;;;;;;;5024557;28;20104;-49
2022/01/09 09:28:50;;;;;;;5.53;2.13;;;;;;;;;;5024802;28;20109;-48
2022/01/09 09:31:16;;;;;;;5.35;1.70;;;;;;;;;;5025804;28;20107;-48
2022/01/09 09:33:42;;;;;;;5.60;1.75;;;;;;;;;;5023201;28;20040;-51
2022/01/09 09:36:08;;;;;;;8.88;1.60;;;;;;;;;;5016403;28;20038;-48
2022/01/09 09:38:33;;;;;;;7.85;1.98;;;;;;;;;;5019464;28;20038;-51
2022/01/09 09:40:59;;;;;;;6.45;1.83;;;;;;;;;;5022094;28;20033;-55
2022/01/09 09:43:25;;;;;;;6.20;1.73;;;;;;;;;;5018796;28;20746;-49
2022/01/09 09:45:52;;;;;;;3.40;1.73;;;;;;;;;;5019194;28;20029;-57
2022/01/09 09:48:19;;;;;;;4.55;1.77;;;;;;;;;;5022863;28;20045;-54
2022/01/09 09:50:46;;;;;;;2.90;1.30;;;;;;;;;;5035490;28;22304;-50
2022/01/09 09:53:12;;;;;;;4.25;1.73;;;;;;;;;;5021427;28;20037;-50
2022/01/09 09:55:40;;;;;;;6.45;1.90;;;;;;;;;;5022525;28;20120;-51
2022/01/09 09:58:06;;;;;;;5.53;2.42;;;;;;;;;;5017418;28;20040;-53
2022/01/09 10:00:33;;;;;;;8.43;2.30;;;;;;;;;;5014413;28;20029;-53
2022/01/09 10:03:00;;;;;;;9.13;2.45;;;;;;;;;;5015033;28;20048;-53
2022/01/09 10:05:33;;;;;;;6.28;2.22;;;;;;;;;;5018336;28;22157;-54
2022/01/09 10:08:07;;;;;;;6.90;2.13;;;;;;;;;;5015398;28;20092;-50
2022/01/09 10:10:35;;;;;;;4.00;1.80;;;;;;;;;;5016219;28;20029;-50
2022/01/09 10:13:27;;;;;;;4.13;2.03;;;;;;;;;;5022700;28;20030;-51
2022/01/09 10:15:57;;;;;;;6.65;2.33;;;;;;;;;;5021565;28;20417;-55
2022/01/09 10:18:43;;;;;;;6.57;2.70;;;;;;;;;;5015931;28;20044;-54
2022/01/09 10:21:14;;;;;;;5.93;1.90;;;;;;;;;;5022035;28;20072;-54
2022/01/09 10:24:16;;;;;;;7.93;2.77;;;;;;;;;;5014928;28;20462;-50
2022/01/09 10:26:49;;;;;;;9.15;2.50;;;;;;;;;;4993595;28;20104;-52
2022/01/09 10:29:14;;;;;;;7.63;3.10;;;;;;;;;;4990836;28;20046;-52
2022/01/09 10:31:45;;;;;;;7.07;2.65;;;;;;;;;;4989214;28;20036;-54
2022/01/09 10:34:11;;;;;;;9.52;3.00;;;;;;;;;;4991421;28;20141;-50
2022/01/09 10:36:43;;;;;;;6.03;2.05;;;;;;;;;;4993124;28;20033;-50
2022/01/09 10:39:16;;;;;;;11.02;2.38;;;;;;;;;;4995686;28;20541;-50
2022/01/09 10:41:49;;;;;;;6.45;2.17;;;;;;;;;;4996050;28;20061;-52
2022/01/09 10:44:17;;;;;;;12.90;2.95;;;;;;;;;;4995990;28;20035;-54
2022/01/09 10:46:56;;;;;;;8.48;2.28;;;;;;;;;;5000708;28;20034;-51
2022/01/09 10:49:23;;;;;;;6.78;2.38;;;;;;;;;;4999110;28;20049;-51
2022/01/09 10:51:50;;;;;;;9.88;2.28;;;;;;;;;;4996375;28;20026;-52
2022/01/09 10:54:31;;;;;;;4.60;1.83;;;;;;;;;;4991239;28;20498;-47
2022/01/09 10:57:15;;;;;;;3.20;1.63;;;;;;;;;;4992046;28;20037;-53
2022/01/09 10:59:41;;;;;;;6.97;2.53;;;;;;;;;;4997921;28;20026;-49
2022/01/09 11:02:10;;;;;;;5.10;1.60;;;;;;;;;;5022628;28;20059;-53
2022/01/09 11:04:36;;;;;;;4.43;1.83;;;;;;;;;;5020893;28;20032;-49
2022/01/09 11:07:03;;;;;;;8.45;2.53;;;;;;;;;;5018749;28;20086;-52
2022/01/09 11:09:30;;;;;;;6.70;2.40;;;;;;;;;;5019344;28;20030;-51
2022/01/09 11:11:57;;;;;;;7.28;2.22;;;;;;;;;;5020691;28;20074;-49
2022/01/09 11:14:24;;;;;;;5.32;2.10;;;;;;;;;;5020640;28;20041;-52
2022/01/09 11:16:54;;;;;;;9.30;2.50;;;;;;;;;;5017881;28;20033;-51
2022/01/09 11:19:25;;;;;;;5.30;2.50;;;;;;;;;;5027557;28;20098;-50
2022/01/09 11:21:59;;;;;;;4.82;2.67;;;;;;;;;;5021573;28;20470;-55
2022/01/09 11:24:39;;;;;;;6.05;2.30;;;;;;;;;;5020897;28;20061;-48
2022/01/09 11:27:17;;;;;;;4.75;2.58;;;;;;;;;;5018775;28;20037;-49
2022/01/09 11:30:03;;;;;;;7.70;3.58;;;;;;;;;;5024052;28;20025;-54
2022/01/09 11:32:44;;;;;;;5.05;2.10;;;;;;;;;;5022674;28;20378;-55
2022/01/09 11:35:28;;;;;;;8.18;3.60;;;;;;;;;;5018905;28;20447;-50
2022/01/09 11:38:35;;;;;;;9.38;2.85;;;;;;;;;;5020768;28;20049;-51
2022/01/09 11:41:19;;;;;;;8.18;2.85;;;;;;;;;;5023455;28;20037;-50
2022/01/09 11:43:53;;;;;;;15.98;5.05;;;;;;;;;;5025356;28;20037;-51
2022/01/09 11:46:19;;;;;;;7.75;2.22;;;;;;;;;;5022947;28;20018;-55
2022/01/09 11:48:50;;;;;;;4.57;2.00;;;;;;;;;;5024002;28;22055;-55
2022/01/09 11:51:17;;;;;;;18.20;6.07;;;;;;;;;;5018527;28;20381;-51
2022/01/09 11:54:02;;;;;;;14.82;4.38;;;;;;;;;;5022560;28;20037;-51
2022/01/09 11:56:47;;;;;;;15.45;5.13;;;;;;;;;;5024097;28;20029;-52
2022/01/09 11:59:20;;;;;;;9.35;2.53;;;;;;;;;;5024045;28;20088;-55
2022/01/09 12:01:48;;;;;;;5.65;2.17;;;;;;;;;;5024095;28;20033;-50
2022/01/09 12:04:32;;;;;;;6.55;2.33;;;;;;;;;;5023981;28;20429;-52
2022/01/09 12:07:19;;;;;;;20.65;8.18;;;;;;;;;;5023184;28;20405;-52
2022/01/09 12:09:51;;;;;;;7.97;4.13;;;;;;;;;;5025528;28;20037;-49
2022/01/09 12:12:19;;;;;;;6.10;2.85;;;;;;;;;;5020929;28;20033;-49
2022/01/09 12:14:54;;;;;;;6.15;2.67;;;;;;;;;;5018167;28;20044;-49
2022/01/09 12:17:26;;;;;;;5.80;2.90;;;;;;;;;;5017805;28;20029;-53
2022/01/09 12:20:13;;;;;;;9.27;4.57;;;;;;;;;;5026082;28;20046;-49
2022/01/09 12:22:42;;;;;;;12.90;4.65;;;;;;;;;;5020678;28;20045;-51
2022/01/09 12:25:24;;;;;;;7.63;2.90;;;;;;;;;;5019270;28;20025;-52
2022/01/09 12:27:54;;;;;;;13.70;5.38;;;;;;;;;;5022153;28;20417;-50
2022/01/09 12:30:41;;;;;;;8.63;3.92;;;;;;;;;;5018482;28;20482;-51
2022/01/09 12:33:25;;;;;;;11.93;3.72;;;;;;;;;;5023340;28;20037;-49
2022/01/09 12:35:58;;;;;;;7.18;2.75;;;;;;;;;;5018295;28;20477;-50
2022/01/09 12:38:27;;;;;;;9.85;3.30;;;;;;;;;;5024086;28;20114;-52
2022/01/09 12:41:07;;;;;;;6.30;2.30;;;;;;;;;;5022173;28;20474;-49
2022/01/09 12:43:35;;;;;;;7.53;2.10;;;;;;;;;;5018983;28;20039;-50
2022/01/09 12:46:14;;;;;;;9.48;3.00;;;;;;;;;;5025871;28;20040;-48
2022/01/09 12:48:41;;;;;;;7.85;3.17;;;;;;;;;;5021839;28;20033;-51
2022/01/09 12:51:13;;;;;;;10.57;3.33;;;;;;;;;;5022936;28;20030;-50
2022/01/09 12:53:44;;;;;;;7.32;3.42;;;;;;;;;;5021323;28;20029;-55
2022/01/09 12:56:18;;;;;;;8.68;4.03;;;;;;;;;;5019231;28;20479;-51
2022/01/09 12:58:52;;;;;;;13.43;7.50;;;;;;;;;;5023752;28;20033;-53
2022/01/09 13:01:25;;;;;;;13.70;5.50;;;;;;;;;;5020829;28;20718;-55
2022/01/09 13:03:52;;;;;;;;;;;;;;;;;;5025185;28;20035;-49
2022/01/09 13:06:30;;;;;;;7.07;2.80;;;;;;;;;;5018689;28;20003;-54
2022/01/09 13:09:03;;;;;;;9.55;3.45;;;;;;;;;;5017635;28;20092;-51
2022/01/09 13:11:29;;;;;;;10.20;3.45;;;;;;;;;;5024483;28;20034;-51
2022/01/09 13:13:56;;;;;;;11.23;2.78;;;;;;;;;;5019876;28;20057;-55
2022/01/09 13:16:27;;;;;;;8.63;2.63;;;;;;;;;;5020826;28;20037;-53
2022/01/09 13:18:57;;;;;;;10.43;2.60;;;;;;;;;;5020494;28;20507;-54
2022/01/09 13:21:24;;;;;;;8.80;2.50;;;;;;;;;;5022958;28;20033;-51
2022/01/09 13:24:00;;;;;;;8.38;2.55;;;;;;;;;;5021137;28;20108;-54
2022/01/09 13:26:53;;;;;;;7.70;3.35;;;;;;;;;;5024428;28;20025;-50
2022/01/09 13:29:20;;;;;;;11.70;4.70;;;;;;;;;;5019119;28;20572;-55
2022/01/09 13:31:53;;;;;;;16.25;4.90;;;;;;;;;;5023321;28;20360;-49
2022/01/09 13:34:42;;;;;;;16.15;7.75;;;;;;;;;;5025972;28;20104;-54
2022/01/09 13:37:13;;;;;;;13.32;7.18;;;;;;;;;;5020121;28;20126;-53
2022/01/09 13:39:43;;;;;;;14.15;6.93;;;;;;;;;;5019503;28;20030;-55
2022/01/09 13:42:11;;;;;;;12.35;5.15;;;;;;;;;;5016294;28;20045;-51
2022/01/09 13:44:39;;;;;;;19.10;6.90;;;;;;;;;;5018671;28;20442;-56
2022/01/09 13:47:08;;;;;;;21.85;10.50;;;;;;;;;;5017524;28;20033;-55
2022/01/09 13:49:36;;;;;;;13.25;6.40;;;;;;;;;;5020957;28;20112;-52
2022/01/09 13:52:16;;;;;;;13.18;4.13;;;;;;;;;;5026792;28;20033;-53
2022/01/09 13:54:55;;;;;;;8.85;3.70;;;;;;;;;;5024544;28;20030;-53
2022/01/09 13:57:25;;;;;;;7.63;2.88;;;;;;;;;;5021618;28;20025;-53
2022/01/09 13:59:52;;;;;;;10.07;3.53;;;;;;;;;;5027027;28;20017;-50
2022/01/09 14:02:19;;;;;;;8.57;2.97;;;;;;;;;;5020299;28;20061;-50
2022/01/09 14:05:06;;;;;;;10.73;3.70;;;;;;;;;;5018015;28;20029;-52
2022/01/09 14:07:32;;;;;;;11.15;3.65;;;;;;;;;;5021119;28;20526;-54
2022/01/09 14:09:58;;;;;;;8.50;3.70;;;;;;;;;;5021157;28;20040;-56
2022/01/09 14:12:25;;;;;;;8.27;2.97;;;;;;;;;;5017394;28;20454;-51
2022/01/09 14:14:51;;;;;;;6.55;2.72;;;;;;;;;;5024185;28;20047;-53
2022/01/09 14:17:34;;;;;;;9.45;3.58;;;;;;;;;;5022182;28;20108;-55
2022/01/09 14:20:03;;;;;;;7.57;2.88;;;;;;;;;;5025032;28;20482;-54
2022/01/09 14:22:43;;;;;;;6.05;2.60;;;;;;;;;;5027990;28;20478;-50
2022/01/09 14:25:17;;;;;;;14.02;3.25;;;;;;;;;;5017544;28;20033;-54
2022/01/09 14:27:46;;;;;;;7.00;2.80;;;;;;;;;;5024358;28;20029;-49
2022/01/09 14:30:34;;;;;;;7.07;2.97;;;;;;;;;;5025630;28;20079;-52
2022/01/09 14:33:08;;;;;;;9.80;2.50;;;;;;;;;;5022006;28;20750;-56
2022/01/09 14:35:40;;;;;;;5.32;2.50;;;;;;;;;;5020839;28;20045;-53
2022/01/09 14:38:09;;;;;;;7.60;3.28;;;;;;;;;;5021047;28;20029;-55
2022/01/09 14:40:36;;;;;;;6.65;3.13;;;;;;;;;;5015875;28;20030;-54
2022/01/09 14:43:03;;;;;;;4.78;2.03;;;;;;;;;;5020559;28;20045;-56
2022/01/09 14:45:29;;;;;;;7.45;2.60;;;;;;;;;;5024956;28;20037;-55
2022/01/09 14:47:55;;;;;;;4.07;2.00;;;;;;;;;;5022682;28;20037;-56
2022/01/09 14:50:21;;;;;;;7.97;4.18;;;;;;;;;;5014087;28;20022;-54
2022/01/09 14:52:47;;;;;;;10.75;4.30;;;;;;;;;;5020840;28;20356;-53